Weather at New Hope Landing Strip [CLOSED]

Public forecast

Using degrees Fahrenheit for public forecast. Weather courtesy of forecast.io.

Closest aviation weather report (METAR) to New Hope Landing Strip

Closest report is Blythe Airport, 47.4 nm (87.9 km) W. Retrieved 2021/03/07 12:52 UTC (2 hours ago):

KBLH 071252Z AUTO 36004KT 10SM CLR 12/00 A2991 RMK AO2 SLP125 T01220000

Closest aviation forecast (TAF) to New Hope Landing Strip

Forecast is more than 6 hours old.

Closest forecast is Blythe Airport, 47.4 nm (87.9 km) W. Retrieved 2021/03/07 06:30 UTC (8 hours ago):

TAF KBLH 070528Z 0706/0806 18005KT P6SM FEW250 FM071700 18005KT P6SM SKC FM072300 22011KT P6SM SCT250